sensor_id;sensor_type;location;lat;lon;timestamp;P1;durP1;ratioP1;P2;durP2;ratioP2
39738;SDS011;25422;48.286;8.484;2023-12-04T00:01:14;30.52;;;15.48;;
39738;SDS011;25422;48.286;8.484;2023-12-04T00:03:41;37.50;;;15.25;;
39738;SDS011;25422;48.286;8.484;2023-12-04T00:06:07;35.55;;;16.30;;
39738;SDS011;25422;48.286;8.484;2023-12-04T00:08:33;36.90;;;15.60;;
39738;SDS011;25422;48.286;8.484;2023-12-04T00:10:58;36.42;;;16.58;;
39738;SDS011;25422;48.286;8.484;2023-12-04T00:13:24;38.70;;;17.67;;
39738;SDS011;25422;48.286;8.484;2023-12-04T00:15:49;39.40;;;16.23;;
39738;SDS011;25422;48.286;8.484;2023-12-04T00:18:15;38.75;;;16.50;;
39738;SDS011;25422;48.286;8.484;2023-12-04T00:20:40;39.53;;;17.58;;
39738;SDS011;25422;48.286;8.484;2023-12-04T00:23:06;41.03;;;17.52;;
39738;SDS011;25422;48.286;8.484;2023-12-04T00:25:31;39.63;;;17.83;;
39738;SDS011;25422;48.286;8.484;2023-12-04T00:27:57;39.78;;;17.30;;
39738;SDS011;25422;48.286;8.484;2023-12-04T00:30:22;35.53;;;15.93;;
39738;SDS011;25422;48.286;8.484;2023-12-04T00:32:48;37.38;;;16.30;;
39738;SDS011;25422;48.286;8.484;2023-12-04T00:35:13;36.65;;;15.88;;
39738;SDS011;25422;48.286;8.484;2023-12-04T00:37:39;36.67;;;16.35;;
39738;SDS011;25422;48.286;8.484;2023-12-04T00:40:05;36.40;;;16.27;;
39738;SDS011;25422;48.286;8.484;2023-12-04T00:42:32;36.53;;;16.08;;
39738;SDS011;25422;48.286;8.484;2023-12-04T00:44:57;36.03;;;15.43;;
39738;SDS011;25422;48.286;8.484;2023-12-04T00:47:23;36.00;;;15.55;;
39738;SDS011;25422;48.286;8.484;2023-12-04T00:49:49;33.45;;;15.38;;
39738;SDS011;25422;48.286;8.484;2023-12-04T00:52:14;38.17;;;16.15;;
39738;SDS011;25422;48.286;8.484;2023-12-04T00:54:39;35.38;;;15.95;;
39738;SDS011;25422;48.286;8.484;2023-12-04T00:57:08;39.67;;;16.80;;
39738;SDS011;25422;48.286;8.484;2023-12-04T00:59:34;37.85;;;16.27;;
39738;SDS011;25422;48.286;8.484;2023-12-04T01:01:59;32.22;;;15.80;;
39738;SDS011;25422;48.286;8.484;2023-12-04T01:04:25;34.05;;;15.68;;
39738;SDS011;25422;48.286;8.484;2023-12-04T01:06:51;40.53;;;17.08;;
39738;SDS011;25422;48.286;8.484;2023-12-04T01:09:17;35.35;;;16.67;;
39738;SDS011;25422;48.286;8.484;2023-12-04T01:11:42;38.10;;;16.55;;
39738;SDS011;25422;48.286;8.484;2023-12-04T01:14:08;34.50;;;15.70;;
39738;SDS011;25422;48.286;8.484;2023-12-04T01:16:33;34.42;;;15.48;;
39738;SDS011;25422;48.286;8.484;2023-12-04T01:18:59;36.33;;;16.92;;
39738;SDS011;25422;48.286;8.484;2023-12-04T01:21:24;39.45;;;17.35;;
39738;SDS011;25422;48.286;8.484;2023-12-04T01:23:49;32.05;;;14.77;;
39738;SDS011;25422;48.286;8.484;2023-12-04T01:26:15;32.00;;;15.82;;
39738;SDS011;25422;48.286;8.484;2023-12-04T01:28:40;36.83;;;16.08;;
39738;SDS011;25422;48.286;8.484;2023-12-04T01:31:06;34.97;;;14.95;;
39738;SDS011;25422;48.286;8.484;2023-12-04T01:33:31;34.00;;;16.52;;
39738;SDS011;25422;48.286;8.484;2023-12-04T01:35:57;31.90;;;14.23;;
39738;SDS011;25422;48.286;8.484;2023-12-04T01:38:22;30.60;;;14.32;;
39738;SDS011;25422;48.286;8.484;2023-12-04T01:40:47;36.03;;;15.82;;
39738;SDS011;25422;48.286;8.484;2023-12-04T01:43:13;39.85;;;15.77;;
39738;SDS011;25422;48.286;8.484;2023-12-04T01:45:38;31.10;;;14.15;;
39738;SDS011;25422;48.286;8.484;2023-12-04T01:48:04;31.05;;;14.57;;
39738;SDS011;25422;48.286;8.484;2023-12-04T01:50:31;31.70;;;14.57;;
39738;SDS011;25422;48.286;8.484;2023-12-04T01:52:58;34.42;;;14.50;;
39738;SDS011;25422;48.286;8.484;2023-12-04T01:55:24;28.25;;;13.13;;
39738;SDS011;25422;48.286;8.484;2023-12-04T01:57:49;28.83;;;13.45;;
39738;SDS011;25422;48.286;8.484;2023-12-04T02:00:15;30.15;;;13.85;;
39738;SDS011;25422;48.286;8.484;2023-12-04T02:02:41;30.38;;;14.05;;
39738;SDS011;25422;48.286;8.484;2023-12-04T02:05:09;25.65;;;12.63;;
39738;SDS011;25422;48.286;8.484;2023-12-04T02:07:36;30.05;;;13.93;;
39738;SDS011;25422;48.286;8.484;2023-12-04T02:10:04;26.57;;;12.87;;
39738;SDS011;25422;48.286;8.484;2023-12-04T02:12:31;32.22;;;14.23;;
39738;SDS011;25422;48.286;8.484;2023-12-04T02:14:57;26.17;;;12.50;;
39738;SDS011;25422;48.286;8.484;2023-12-04T02:17:23;28.50;;;13.45;;
39738;SDS011;25422;48.286;8.484;2023-12-04T02:19:50;31.50;;;14.35;;
39738;SDS011;25422;48.286;8.484;2023-12-04T02:22:15;30.65;;;13.48;;
39738;SDS011;25422;48.286;8.484;2023-12-04T02:24:43;28.27;;;13.63;;
39738;SDS011;25422;48.286;8.484;2023-12-04T02:29:43;28.80;;;13.30;;
39738;SDS011;25422;48.286;8.484;2023-12-04T02:32:17;31.48;;;14.77;;
39738;SDS011;25422;48.286;8.484;2023-12-04T02:34:44;24.17;;;12.75;;
39738;SDS011;25422;48.286;8.484;2023-12-04T02:37:12;26.90;;;12.60;;
39738;SDS011;25422;48.286;8.484;2023-12-04T02:39:40;28.85;;;13.30;;
39738;SDS011;25422;48.286;8.484;2023-12-04T02:42:06;32.15;;;13.93;;
39738;SDS011;25422;48.286;8.484;2023-12-04T02:44:31;29.35;;;14.45;;
39738;SDS011;25422;48.286;8.484;2023-12-04T02:46:56;27.88;;;13.07;;
39738;SDS011;25422;48.286;8.484;2023-12-04T02:49:22;28.95;;;14.70;;
39738;SDS011;25422;48.286;8.484;2023-12-04T02:51:48;26.95;;;13.70;;
39738;SDS011;25422;48.286;8.484;2023-12-04T02:54:13;27.65;;;13.15;;
39738;SDS011;25422;48.286;8.484;2023-12-04T02:56:38;21.73;;;11.98;;
39738;SDS011;25422;48.286;8.484;2023-12-04T02:59:04;31.08;;;12.23;;
39738;SDS011;25422;48.286;8.484;2023-12-04T03:01:29;25.77;;;14.10;;
39738;SDS011;25422;48.286;8.484;2023-12-04T03:03:55;26.52;;;13.05;;
39738;SDS011;25422;48.286;8.484;2023-12-04T03:06:20;24.20;;;12.52;;
39738;SDS011;25422;48.286;8.484;2023-12-04T03:08:46;23.65;;;12.73;;
39738;SDS011;25422;48.286;8.484;2023-12-04T03:11:11;26.77;;;12.48;;
39738;SDS011;25422;48.286;8.484;2023-12-04T03:13:37;24.88;;;11.88;;
39738;SDS011;25422;48.286;8.484;2023-12-04T03:16:02;27.33;;;12.48;;
39738;SDS011;25422;48.286;8.484;2023-12-04T03:18:28;28.13;;;13.48;;
39738;SDS011;25422;48.286;8.484;2023-12-04T03:20:54;27.92;;;14.45;;
39738;SDS011;25422;48.286;8.484;2023-12-04T03:23:19;25.27;;;12.25;;
39738;SDS011;25422;48.286;8.484;2023-12-04T03:25:45;27.60;;;12.70;;
39738;SDS011;25422;48.286;8.484;2023-12-04T03:28:10;26.00;;;12.88;;
39738;SDS011;25422;48.286;8.484;2023-12-04T03:30:36;26.88;;;13.23;;
39738;SDS011;25422;48.286;8.484;2023-12-04T03:33:01;28.05;;;13.88;;
39738;SDS011;25422;48.286;8.484;2023-12-04T03:35:27;25.60;;;12.98;;
39738;SDS011;25422;48.286;8.484;2023-12-04T03:37:52;25.45;;;12.68;;
39738;SDS011;25422;48.286;8.484;2023-12-04T03:40:18;25.88;;;14.02;;
39738;SDS011;25422;48.286;8.484;2023-12-04T03:42:43;24.40;;;12.77;;
39738;SDS011;25422;48.286;8.484;2023-12-04T03:45:09;29.38;;;14.23;;
39738;SDS011;25422;48.286;8.484;2023-12-04T03:47:34;26.88;;;13.07;;
39738;SDS011;25422;48.286;8.484;2023-12-04T03:50:00;27.55;;;12.75;;
39738;SDS011;25422;48.286;8.484;2023-12-04T03:52:25;24.63;;;12.80;;
39738;SDS011;25422;48.286;8.484;2023-12-04T03:54:50;26.88;;;13.75;;
39738;SDS011;25422;48.286;8.484;2023-12-04T03:57:17;29.10;;;13.32;;
39738;SDS011;25422;48.286;8.484;2023-12-04T03:59:43;27.58;;;13.48;;
39738;SDS011;25422;48.286;8.484;2023-12-04T04:02:09;26.48;;;13.13;;
39738;SDS011;25422;48.286;8.484;2023-12-04T04:04:35;26.30;;;13.38;;
39738;SDS011;25422;48.286;8.484;2023-12-04T04:07:00;25.10;;;12.75;;
39738;SDS011;25422;48.286;8.484;2023-12-04T04:09:25;26.10;;;13.07;;
39738;SDS011;25422;48.286;8.484;2023-12-04T04:11:51;25.65;;;13.25;;
39738;SDS011;25422;48.286;8.484;2023-12-04T04:14:16;23.70;;;12.98;;
39738;SDS011;25422;48.286;8.484;2023-12-04T04:16:42;25.17;;;12.65;;
39738;SDS011;25422;48.286;8.484;2023-12-04T04:19:07;28.40;;;13.80;;
39738;SDS011;25422;48.286;8.484;2023-12-04T04:21:32;27.00;;;13.57;;
39738;SDS011;25422;48.286;8.484;2023-12-04T04:23:59;26.00;;;13.18;;
39738;SDS011;25422;48.286;8.484;2023-12-04T04:26:24;28.30;;;13.57;;
39738;SDS011;25422;48.286;8.484;2023-12-04T04:28:50;29.67;;;13.27;;
39738;SDS011;25422;48.286;8.484;2023-12-04T04:31:15;27.77;;;13.15;;
39738;SDS011;25422;48.286;8.484;2023-12-04T04:33:41;28.90;;;14.63;;
39738;SDS011;25422;48.286;8.484;2023-12-04T04:36:08;26.52;;;12.88;;
39738;SDS011;25422;48.286;8.484;2023-12-04T04:38:34;26.88;;;13.38;;
39738;SDS011;25422;48.286;8.484;2023-12-04T04:41:00;24.35;;;12.75;;
39738;SDS011;25422;48.286;8.484;2023-12-04T04:43:25;25.15;;;12.90;;
39738;SDS011;25422;48.286;8.484;2023-12-04T04:45:51;25.52;;;12.73;;
39738;SDS011;25422;48.286;8.484;2023-12-04T04:48:16;24.75;;;13.05;;
39738;SDS011;25422;48.286;8.484;2023-12-04T04:50:41;27.67;;;13.55;;
39738;SDS011;25422;48.286;8.484;2023-12-04T04:53:07;24.08;;;13.27;;
39738;SDS011;25422;48.286;8.484;2023-12-04T04:55:32;33.15;;;15.07;;
39738;SDS011;25422;48.286;8.484;2023-12-04T04:57:58;27.88;;;14.38;;
39738;SDS011;25422;48.286;8.484;2023-12-04T05:00:23;27.67;;;14.32;;
39738;SDS011;25422;48.286;8.484;2023-12-04T05:02:49;27.27;;;13.75;;
39738;SDS011;25422;48.286;8.484;2023-12-04T05:05:14;27.85;;;13.15;;
39738;SDS011;25422;48.286;8.484;2023-12-04T05:07:39;28.98;;;13.43;;
39738;SDS011;25422;48.286;8.484;2023-12-04T05:10:05;27.70;;;13.68;;
39738;SDS011;25422;48.286;8.484;2023-12-04T05:12:30;29.80;;;14.32;;
39738;SDS011;25422;48.286;8.484;2023-12-04T05:14:56;31.65;;;15.82;;
39738;SDS011;25422;48.286;8.484;2023-12-04T05:17:21;25.60;;;13.77;;
39738;SDS011;25422;48.286;8.484;2023-12-04T05:19:47;27.02;;;15.10;;
39738;SDS011;25422;48.286;8.484;2023-12-04T05:22:12;27.83;;;13.25;;
39738;SDS011;25422;48.286;8.484;2023-12-04T05:24:38;27.67;;;14.32;;
39738;SDS011;25422;48.286;8.484;2023-12-04T05:27:03;25.00;;;13.80;;
39738;SDS011;25422;48.286;8.484;2023-12-04T05:29:29;24.27;;;12.77;;
39738;SDS011;25422;48.286;8.484;2023-12-04T05:31:54;24.83;;;13.23;;
39738;SDS011;25422;48.286;8.484;2023-12-04T05:34:19;26.70;;;13.80;;
39738;SDS011;25422;48.286;8.484;2023-12-04T05:36:45;27.80;;;14.02;;
39738;SDS011;25422;48.286;8.484;2023-12-04T05:39:10;25.65;;;13.73;;
39738;SDS011;25422;48.286;8.484;2023-12-04T05:41:36;25.85;;;13.40;;
39738;SDS011;25422;48.286;8.484;2023-12-04T05:44:01;30.52;;;14.43;;
39738;SDS011;25422;48.286;8.484;2023-12-04T05:46:26;29.02;;;14.15;;
39738;SDS011;25422;48.286;8.484;2023-12-04T05:48:52;30.15;;;14.43;;
39738;SDS011;25422;48.286;8.484;2023-12-04T05:51:18;25.88;;;13.00;;
39738;SDS011;25422;48.286;8.484;2023-12-04T05:53:44;28.45;;;13.57;;
39738;SDS011;25422;48.286;8.484;2023-12-04T05:56:09;28.02;;;14.07;;
39738;SDS011;25422;48.286;8.484;2023-12-04T05:58:35;30.15;;;15.70;;
39738;SDS011;25422;48.286;8.484;2023-12-04T06:01:01;35.10;;;17.65;;
39738;SDS011;25422;48.286;8.484;2023-12-04T06:03:26;32.45;;;15.55;;
39738;SDS011;25422;48.286;8.484;2023-12-04T06:05:51;29.48;;;15.82;;
39738;SDS011;25422;48.286;8.484;2023-12-04T06:08:17;27.50;;;14.45;;
39738;SDS011;25422;48.286;8.484;2023-12-04T06:10:42;28.10;;;14.75;;
39738;SDS011;25422;48.286;8.484;2023-12-04T06:13:08;29.58;;;15.10;;
39738;SDS011;25422;48.286;8.484;2023-12-04T06:15:33;33.05;;;16.77;;
39738;SDS011;25422;48.286;8.484;2023-12-04T06:17:59;31.15;;;16.55;;
39738;SDS011;25422;48.286;8.484;2023-12-04T06:20:24;31.08;;;15.52;;
39738;SDS011;25422;48.286;8.484;2023-12-04T06:22:50;32.08;;;15.52;;
39738;SDS011;25422;48.286;8.484;2023-12-04T06:25:15;31.65;;;15.50;;
39738;SDS011;25422;48.286;8.484;2023-12-04T06:27:41;28.58;;;14.80;;
39738;SDS011;25422;48.286;8.484;2023-12-04T06:30:07;36.05;;;16.48;;
39738;SDS011;25422;48.286;8.484;2023-12-04T06:32:33;28.73;;;14.35;;
39738;SDS011;25422;48.286;8.484;2023-12-04T06:34:58;29.65;;;15.23;;
39738;SDS011;25422;48.286;8.484;2023-12-04T06:37:24;30.33;;;15.20;;
39738;SDS011;25422;48.286;8.484;2023-12-04T06:39:50;32.55;;;15.63;;
39738;SDS011;25422;48.286;8.484;2023-12-04T06:42:18;29.33;;;14.98;;
39738;SDS011;25422;48.286;8.484;2023-12-04T06:44:43;29.70;;;14.73;;
39738;SDS011;25422;48.286;8.484;2023-12-04T06:47:09;28.23;;;14.90;;
39738;SDS011;25422;48.286;8.484;2023-12-04T06:49:37;30.65;;;15.25;;
39738;SDS011;25422;48.286;8.484;2023-12-04T06:52:02;28.02;;;14.82;;
39738;SDS011;25422;48.286;8.484;2023-12-04T06:54:29;28.70;;;14.30;;
39738;SDS011;25422;48.286;8.484;2023-12-04T06:56:54;28.95;;;14.23;;
39738;SDS011;25422;48.286;8.484;2023-12-04T06:59:20;32.35;;;16.13;;
39738;SDS011;25422;48.286;8.484;2023-12-04T07:01:46;32.80;;;16.33;;
39738;SDS011;25422;48.286;8.484;2023-12-04T07:04:11;27.52;;;14.38;;
39738;SDS011;25422;48.286;8.484;2023-12-04T07:06:39;29.25;;;14.20;;
39738;SDS011;25422;48.286;8.484;2023-12-04T07:09:05;25.52;;;13.98;;
39738;SDS011;25422;48.286;8.484;2023-12-04T07:11:32;24.88;;;13.25;;
39738;SDS011;25422;48.286;8.484;2023-12-04T07:13:58;26.70;;;12.55;;
39738;SDS011;25422;48.286;8.484;2023-12-04T07:16:24;24.30;;;12.05;;
39738;SDS011;25422;48.286;8.484;2023-12-04T07:18:49;24.17;;;12.30;;
39738;SDS011;25422;48.286;8.484;2023-12-04T07:21:15;24.60;;;12.23;;
39738;SDS011;25422;48.286;8.484;2023-12-04T07:23:40;26.67;;;12.10;;
39738;SDS011;25422;48.286;8.484;2023-12-04T07:26:06;28.55;;;12.90;;
39738;SDS011;25422;48.286;8.484;2023-12-04T07:28:32;24.85;;;11.68;;
39738;SDS011;25422;48.286;8.484;2023-12-04T07:30:57;28.95;;;12.75;;
39738;SDS011;25422;48.286;8.484;2023-12-04T07:33:23;25.77;;;11.88;;
39738;SDS011;25422;48.286;8.484;2023-12-04T07:35:48;24.55;;;11.82;;
39738;SDS011;25422;48.286;8.484;2023-12-04T07:38:14;28.65;;;11.93;;
39738;SDS011;25422;48.286;8.484;2023-12-04T07:40:39;25.33;;;12.32;;
39738;SDS011;25422;48.286;8.484;2023-12-04T07:43:05;28.65;;;13.27;;
39738;SDS011;25422;48.286;8.484;2023-12-04T07:45:30;26.17;;;12.63;;
39738;SDS011;25422;48.286;8.484;2023-12-04T07:47:56;29.45;;;12.90;;
39738;SDS011;25422;48.286;8.484;2023-12-04T07:50:21;29.23;;;13.35;;
39738;SDS011;25422;48.286;8.484;2023-12-04T07:52:47;26.45;;;12.93;;
39738;SDS011;25422;48.286;8.484;2023-12-04T07:55:12;28.52;;;13.50;;
39738;SDS011;25422;48.286;8.484;2023-12-04T07:57:37;30.27;;;12.73;;
39738;SDS011;25422;48.286;8.484;2023-12-04T08:00:03;26.83;;;12.77;;
39738;SDS011;25422;48.286;8.484;2023-12-04T08:02:29;22.67;;;11.15;;
39738;SDS011;25422;48.286;8.484;2023-12-04T08:04:56;23.60;;;11.07;;
39738;SDS011;25422;48.286;8.484;2023-12-04T08:07:21;25.58;;;10.88;;
39738;SDS011;25422;48.286;8.484;2023-12-04T08:09:46;22.25;;;11.30;;
39738;SDS011;25422;48.286;8.484;2023-12-04T08:12:12;21.88;;;10.13;;
39738;SDS011;25422;48.286;8.484;2023-12-04T08:14:37;22.77;;;10.52;;
39738;SDS011;25422;48.286;8.484;2023-12-04T08:17:03;22.33;;;10.50;;
39738;SDS011;25422;48.286;8.484;2023-12-04T08:19:28;20.95;;;10.13;;
39738;SDS011;25422;48.286;8.484;2023-12-04T08:21:54;32.03;;;18.17;;
39738;SDS011;25422;48.286;8.484;2023-12-04T08:24:20;23.83;;;12.00;;
39738;SDS011;25422;48.286;8.484;2023-12-04T08:26:46;21.42;;;10.85;;
39738;SDS011;25422;48.286;8.484;2023-12-04T08:29:12;23.20;;;12.55;;
39738;SDS011;25422;48.286;8.484;2023-12-04T08:31:37;23.02;;;11.57;;
39738;SDS011;25422;48.286;8.484;2023-12-04T08:34:02;21.38;;;10.88;;
39738;SDS011;25422;48.286;8.484;2023-12-04T08:36:28;25.33;;;13.95;;
39738;SDS011;25422;48.286;8.484;2023-12-04T08:38:53;22.20;;;12.48;;
39738;SDS011;25422;48.286;8.484;2023-12-04T08:41:19;35.22;;;17.33;;
39738;SDS011;25422;48.286;8.484;2023-12-04T08:43:45;18.63;;;10.25;;
39738;SDS011;25422;48.286;8.484;2023-12-04T08:46:13;23.50;;;11.57;;
39738;SDS011;25422;48.286;8.484;2023-12-04T08:48:42;24.50;;;12.00;;
39738;SDS011;25422;48.286;8.484;2023-12-04T08:51:08;27.43;;;14.13;;
39738;SDS011;25422;48.286;8.484;2023-12-04T08:53:40;23.45;;;12.05;;
39738;SDS011;25422;48.286;8.484;2023-12-04T08:56:05;21.02;;;10.57;;
39738;SDS011;25422;48.286;8.484;2023-12-04T08:58:31;26.33;;;13.35;;
39738;SDS011;25422;48.286;8.484;2023-12-04T09:00:57;25.85;;;12.20;;
39738;SDS011;25422;48.286;8.484;2023-12-04T09:03:22;20.73;;;10.23;;
39738;SDS011;25422;48.286;8.484;2023-12-04T09:05:49;24.02;;;12.85;;
39738;SDS011;25422;48.286;8.484;2023-12-04T09:08:16;20.10;;;10.50;;
39738;SDS011;25422;48.286;8.484;2023-12-04T09:10:42;20.55;;;11.57;;
39738;SDS011;25422;48.286;8.484;2023-12-04T09:13:07;22.80;;;11.45;;
39738;SDS011;25422;48.286;8.484;2023-12-04T09:15:33;21.05;;;10.65;;
39738;SDS011;25422;48.286;8.484;2023-12-04T09:17:58;21.77;;;11.57;;
39738;SDS011;25422;48.286;8.484;2023-12-04T09:20:24;25.98;;;12.20;;
39738;SDS011;25422;48.286;8.484;2023-12-04T09:22:50;23.40;;;12.57;;
39738;SDS011;25422;48.286;8.484;2023-12-04T09:25:16;23.02;;;12.20;;
39738;SDS011;25422;48.286;8.484;2023-12-04T09:27:42;22.13;;;11.95;;
39738;SDS011;25422;48.286;8.484;2023-12-04T09:30:07;21.48;;;10.95;;
39738;SDS011;25422;48.286;8.484;2023-12-04T09:32:33;22.42;;;11.30;;
39738;SDS011;25422;48.286;8.484;2023-12-04T09:34:59;23.23;;;11.70;;
39738;SDS011;25422;48.286;8.484;2023-12-04T09:37:24;21.80;;;11.88;;
39738;SDS011;25422;48.286;8.484;2023-12-04T09:39:50;23.15;;;11.52;;
39738;SDS011;25422;48.286;8.484;2023-12-04T09:42:15;24.75;;;12.55;;
39738;SDS011;25422;48.286;8.484;2023-12-04T09:44:43;19.27;;;10.50;;
39738;SDS011;25422;48.286;8.484;2023-12-04T09:47:09;27.70;;;14.30;;
39738;SDS011;25422;48.286;8.484;2023-12-04T09:49:35;30.60;;;17.33;;
39738;SDS011;25422;48.286;8.484;2023-12-04T09:52:01;29.30;;;15.82;;
39738;SDS011;25422;48.286;8.484;2023-12-04T09:54:30;19.00;;;9.85;;
39738;SDS011;25422;48.286;8.484;2023-12-04T09:56:56;22.60;;;12.50;;
39738;SDS011;25422;48.286;8.484;2023-12-04T09:59:23;20.83;;;11.02;;
39738;SDS011;25422;48.286;8.484;2023-12-04T10:01:51;19.75;;;11.18;;
39738;SDS011;25422;48.286;8.484;2023-12-04T10:04:16;21.40;;;11.77;;
39738;SDS011;25422;48.286;8.484;2023-12-04T10:06:41;19.00;;;11.02;;
39738;SDS011;25422;48.286;8.484;2023-12-04T10:09:08;19.15;;;10.27;;
39738;SDS011;25422;48.286;8.484;2023-12-04T10:11:42;19.45;;;11.02;;
39738;SDS011;25422;48.286;8.484;2023-12-04T10:14:13;17.98;;;10.50;;
39738;SDS011;25422;48.286;8.484;2023-12-04T10:16:40;18.10;;;10.18;;
39738;SDS011;25422;48.286;8.484;2023-12-04T10:21:54;17.67;;;10.10;;
39738;SDS011;25422;48.286;8.484;2023-12-04T10:24:37;16.77;;;9.60;;
39738;SDS011;25422;48.286;8.484;2023-12-04T10:27:04;16.95;;;9.20;;
39738;SDS011;25422;48.286;8.484;2023-12-04T10:29:48;17.48;;;10.15;;
39738;SDS011;25422;48.286;8.484;2023-12-04T10:32:20;16.05;;;9.35;;
39738;SDS011;25422;48.286;8.484;2023-12-04T10:34:49;16.08;;;9.80;;
39738;SDS011;25422;48.286;8.484;2023-12-04T10:37:15;16.85;;;10.45;;
39738;SDS011;25422;48.286;8.484;2023-12-04T10:39:47;19.58;;;11.20;;
39738;SDS011;25422;48.286;8.484;2023-12-04T10:42:27;19.40;;;11.13;;
39738;SDS011;25422;48.286;8.484;2023-12-04T10:44:56;18.38;;;10.93;;
39738;SDS011;25422;48.286;8.484;2023-12-04T10:47:22;15.05;;;9.15;;
39738;SDS011;25422;48.286;8.484;2023-12-04T10:49:49;13.68;;;8.20;;
39738;SDS011;25422;48.286;8.484;2023-12-04T10:52:16;13.02;;;8.40;;
39738;SDS011;25422;48.286;8.484;2023-12-04T10:54:44;18.10;;;9.45;;
39738;SDS011;25422;48.286;8.484;2023-12-04T10:57:10;15.85;;;9.75;;
39738;SDS011;25422;48.286;8.484;2023-12-04T10:59:38;17.33;;;9.63;;
39738;SDS011;25422;48.286;8.484;2023-12-04T11:02:05;16.67;;;9.98;;
39738;SDS011;25422;48.286;8.484;2023-12-04T11:04:33;18.13;;;10.07;;
39738;SDS011;25422;48.286;8.484;2023-12-04T11:07:02;16.95;;;9.75;;
39738;SDS011;25422;48.286;8.484;2023-12-04T11:09:29;16.73;;;10.25;;
39738;SDS011;25422;48.286;8.484;2023-12-04T11:11:59;19.08;;;10.68;;
39738;SDS011;25422;48.286;8.484;2023-12-04T11:14:30;16.60;;;9.90;;
39738;SDS011;25422;48.286;8.484;2023-12-04T11:17:01;16.08;;;9.93;;
39738;SDS011;25422;48.286;8.484;2023-12-04T11:19:47;21.00;;;10.45;;
39738;SDS011;25422;48.286;8.484;2023-12-04T11:22:25;16.77;;;9.77;;
39738;SDS011;25422;48.286;8.484;2023-12-04T11:24:50;18.08;;;10.57;;
39738;SDS011;25422;48.286;8.484;2023-12-04T11:27:18;16.20;;;9.80;;
39738;SDS011;25422;48.286;8.484;2023-12-04T11:29:48;18.15;;;10.68;;
39738;SDS011;25422;48.286;8.484;2023-12-04T11:32:16;20.52;;;11.98;;
39738;SDS011;25422;48.286;8.484;2023-12-04T11:34:49;19.27;;;11.98;;
39738;SDS011;25422;48.286;8.484;2023-12-04T11:37:15;17.23;;;10.38;;
39738;SDS011;25422;48.286;8.484;2023-12-04T11:39:41;19.83;;;12.02;;
39738;SDS011;25422;48.286;8.484;2023-12-04T11:42:06;19.98;;;12.68;;
39738;SDS011;25422;48.286;8.484;2023-12-04T11:44:32;20.13;;;11.23;;
39738;SDS011;25422;48.286;8.484;2023-12-04T11:47:07;19.27;;;11.88;;
39738;SDS011;25422;48.286;8.484;2023-12-04T11:49:32;18.30;;;10.63;;
39738;SDS011;25422;48.286;8.484;2023-12-04T11:51:59;20.10;;;11.90;;
39738;SDS011;25422;48.286;8.484;2023-12-04T11:54:26;34.05;;;17.67;;
39738;SDS011;25422;48.286;8.484;2023-12-04T11:59:36;19.33;;;11.32;;
39738;SDS011;25422;48.286;8.484;2023-12-04T12:02:03;16.63;;;10.00;;
39738;SDS011;25422;48.286;8.484;2023-12-04T12:04:33;16.63;;;9.88;;
39738;SDS011;25422;48.286;8.484;2023-12-04T12:06:58;18.20;;;9.68;;
39738;SDS011;25422;48.286;8.484;2023-12-04T12:09:27;18.73;;;10.88;;
39738;SDS011;25422;48.286;8.484;2023-12-04T12:11:53;18.58;;;10.77;;
39738;SDS011;25422;48.286;8.484;2023-12-04T12:14:22;19.35;;;11.65;;
39738;SDS011;25422;48.286;8.484;2023-12-04T12:16:48;16.90;;;10.73;;
39738;SDS011;25422;48.286;8.484;2023-12-04T12:19:13;18.42;;;10.70;;
39738;SDS011;25422;48.286;8.484;2023-12-04T12:21:39;19.33;;;11.55;;
39738;SDS011;25422;48.286;8.484;2023-12-04T12:24:05;19.17;;;11.23;;
39738;SDS011;25422;48.286;8.484;2023-12-04T12:26:32;18.00;;;10.32;;
39738;SDS011;25422;48.286;8.484;2023-12-04T12:28:57;19.33;;;10.32;;
39738;SDS011;25422;48.286;8.484;2023-12-04T12:31:23;16.20;;;10.05;;
39738;SDS011;25422;48.286;8.484;2023-12-04T12:33:48;19.00;;;10.85;;
39738;SDS011;25422;48.286;8.484;2023-12-04T12:36:14;18.42;;;10.35;;
39738;SDS011;25422;48.286;8.484;2023-12-04T12:38:43;18.20;;;10.75;;
39738;SDS011;25422;48.286;8.484;2023-12-04T12:41:14;17.67;;;10.00;;
39738;SDS011;25422;48.286;8.484;2023-12-04T12:43:41;17.58;;;10.32;;
39738;SDS011;25422;48.286;8.484;2023-12-04T12:46:07;16.42;;;9.35;;
39738;SDS011;25422;48.286;8.484;2023-12-04T12:48:32;15.20;;;9.05;;
39738;SDS011;25422;48.286;8.484;2023-12-04T12:50:58;15.50;;;9.45;;
39738;SDS011;25422;48.286;8.484;2023-12-04T12:53:23;17.05;;;10.13;;
39738;SDS011;25422;48.286;8.484;2023-12-04T12:55:49;18.90;;;10.40;;
39738;SDS011;25422;48.286;8.484;2023-12-04T12:58:14;17.75;;;9.43;;
39738;SDS011;25422;48.286;8.484;2023-12-04T13:00:40;15.98;;;9.32;;
39738;SDS011;25422;48.286;8.484;2023-12-04T13:03:14;14.23;;;9.13;;
39738;SDS011;25422;48.286;8.484;2023-12-04T13:05:40;15.18;;;8.73;;
39738;SDS011;25422;48.286;8.484;2023-12-04T13:08:06;14.27;;;9.30;;
39738;SDS011;25422;48.286;8.484;2023-12-04T13:10:31;17.77;;;8.88;;
39738;SDS011;25422;48.286;8.484;2023-12-04T13:12:57;13.10;;;8.88;;
39738;SDS011;25422;48.286;8.484;2023-12-04T13:15:25;23.70;;;13.32;;
39738;SDS011;25422;48.286;8.484;2023-12-04T13:17:51;15.40;;;9.02;;
39738;SDS011;25422;48.286;8.484;2023-12-04T13:20:16;15.90;;;8.73;;
39738;SDS011;25422;48.286;8.484;2023-12-04T13:22:42;15.35;;;9.02;;
39738;SDS011;25422;48.286;8.484;2023-12-04T13:25:08;17.45;;;9.00;;
39738;SDS011;25422;48.286;8.484;2023-12-04T13:27:35;14.55;;;9.50;;
39738;SDS011;25422;48.286;8.484;2023-12-04T13:30:06;14.98;;;9.25;;
39738;SDS011;25422;48.286;8.484;2023-12-04T13:32:36;14.57;;;8.95;;
39738;SDS011;25422;48.286;8.484;2023-12-04T13:35:06;15.10;;;9.75;;
39738;SDS011;25422;48.286;8.484;2023-12-04T13:37:36;16.10;;;9.85;;
39738;SDS011;25422;48.286;8.484;2023-12-04T13:40:03;15.20;;;9.65;;
39738;SDS011;25422;48.286;8.484;2023-12-04T13:42:35;17.95;;;9.73;;
39738;SDS011;25422;48.286;8.484;2023-12-04T13:45:19;17.92;;;10.38;;
39738;SDS011;25422;48.286;8.484;2023-12-04T13:47:48;14.90;;;9.25;;
39738;SDS011;25422;48.286;8.484;2023-12-04T13:50:14;18.38;;;9.93;;
39738;SDS011;25422;48.286;8.484;2023-12-04T13:52:40;17.77;;;10.95;;
39738;SDS011;25422;48.286;8.484;2023-12-04T13:55:08;18.73;;;9.63;;
39738;SDS011;25422;48.286;8.484;2023-12-04T13:57:44;17.23;;;10.38;;
39738;SDS011;25422;48.286;8.484;2023-12-04T14:00:30;18.73;;;10.65;;
39738;SDS011;25422;48.286;8.484;2023-12-04T14:02:56;19.48;;;10.02;;
39738;SDS011;25422;48.286;8.484;2023-12-04T14:05:32;19.10;;;10.80;;
39738;SDS011;25422;48.286;8.484;2023-12-04T14:08:00;18.13;;;11.00;;
39738;SDS011;25422;48.286;8.484;2023-12-04T14:10:26;17.27;;;10.63;;
39738;SDS011;25422;48.286;8.484;2023-12-04T14:12:53;18.52;;;10.10;;
39738;SDS011;25422;48.286;8.484;2023-12-04T14:15:19;19.00;;;11.13;;
39738;SDS011;25422;48.286;8.484;2023-12-04T14:17:47;17.13;;;10.48;;
39738;SDS011;25422;48.286;8.484;2023-12-04T14:20:13;17.98;;;10.30;;
39738;SDS011;25422;48.286;8.484;2023-12-04T14:22:42;20.55;;;10.98;;
39738;SDS011;25422;48.286;8.484;2023-12-04T14:25:08;18.23;;;10.82;;
39738;SDS011;25422;48.286;8.484;2023-12-04T14:27:34;17.23;;;10.40;;